Astor — C6JR3 — position and weather

sailwx.info

Track history (hours):
 
Tides and Currents Weather Stations Pressure Air Temp Water Temp Dewpoint Dewpoint Depression Visibility Wind Speed Wind Dir Waves Ship Positions

Astor

Operator: Passat Ship Management Ltd

Last reported at 2019-Jul-15 19:32 UTC. Time now 2019-Jul-20 01:25 UTC.
Position N 63°22' W 051°58'.

Length 177 m; draft 6.2 m.

Type: Ship. MMSI: 308214000.

Date/timePositionNaut miles runAvg speedWind from/ knotsBaromVisibWave heightAir tempDewpointWater temp
2019-Jul-15 19:32N 63°22' W 051°58'015.0
2019-Jul-15 19:30N 63°23' W 051°59'815.1
2019-Jul-15 19:00N 63°29' W 052°08'815.2
2019-Jul-15 18:30N 63°35' W 052°17'815.2
2019-Jul-15 18:00N 63°42' W 052°24'815.5
2019-Jul-15 17:30N 63°49' W 052°32'815.3
2019-Jul-15 17:00N 63°56' W 052°40'714.9
2019-Jul-15 16:30N 64°03' W 052°46'714.9
2019-Jul-15 16:00N 64°10' W 052°51'715.1
2019-Jul-15 15:30N 64°17' W 052°56'815.6
2019-Jul-15 15:00N 64°25' W 053°00'815.7
2019-Jul-15 14:30N 64°32' W 053°05'815.6
2019-Jul-15 14:00N 64°40' W 053°09'815.4
2019-Jul-15 13:30N 64°48' W 053°13'815.4
2019-Jul-15 13:00N 64°55' W 053°17'815.5
2019-Jul-15 12:30N 65°03' W 053°21'815.2
2019-Jul-15 12:00N 65°10' W 053°26'815.2
2019-Jul-15 11:30N 65°17' W 053°30'714.9
2019-Jul-15 11:00N 65°25' W 053°35'714.7
2019-Jul-15 10:30N 65°32' W 053°39'815.1
2019-Jul-15 10:00N 65°39' W 053°44'815.5
2019-Jul-15 09:29N 65°47' W 053°49'1214.9
2019-Jul-15 08:42N 65°58' W 053°55'  
2019-Jul-10 08:52N 65°59' W 053°53'513.2
2019-Jul-10 08:30N 65°54' W 053°51'814.1
2019-Jul-10 07:58N 65°47' W 053°47'1014.8
2019-Jul-10 07:18N 65°37' W 053°40'514.8
2019-Jul-10 06:56N 65°32' W 053°37'614.8
2019-Jul-10 06:30N 65°26' W 053°34'1114.8
2019-Jul-10 05:46N 65°16' W 053°27'414.3
2019-Jul-10 05:30N 65°12' W 053°25'714.1
2019-Jul-10 05:00N 65°05' W 053°20'714.4
2019-Jul-10 04:30N 64°58' W 053°16'714.7
2019-Jul-10 04:00N 64°51' W 053°11'714.6
2019-Jul-10 03:30N 64°44' W 053°06'714.7
2019-Jul-10 03:00N 64°37' W 053°01'714.6
2019-Jul-10 02:30N 64°30' W 052°56'714.6
2019-Jul-10 02:00N 64°23' W 052°50'714.5
2019-Jul-10 01:30N 64°16' W 052°45'714.6
2019-Jul-10 01:00N 64°11' W 052°32'815.0
2019-Jul-10 00:30N 64°06' W 052°20'612.3
2019-Jul-10 00:00N 64°04' W 052°06'511.0
2019-Jul-09 23:30N 64°07' W 051°55'611.4
2019-Jul-09 23:00N 64°09' W 051°44'1 1.3
2019-Jul-09 22:29N 64°10' W 051°43'0 0.0
2019-Jul-09 21:59N 64°10' W 051°43'0 0.0
2019-Jul-09 21:29N 64°10' W 051°43'0 0.0
2019-Jul-09 20:58N 64°10' W 051°43'0 0.0
2019-Jul-09 20:28N 64°10' W 051°43'0 0.0
2019-Jul-09 19:58N 64°10' W 051°43'0 0.0
2019-Jul-09 19:28N 64°10' W 051°43'0 0.0
2019-Jul-09 18:58N 64°10' W 051°43'0 0.2
2019-Jul-09 18:30N 64°10' W 051°43'1 2.3
2019-Jul-09 18:00N 64°09' W 051°45'4 8.8
2019-Jul-09 17:30N 64°07' W 051°54'4 8.5
2019-Jul-09 17:00N 64°05' W 052°03'5 9.8
2019-Jul-09 16:30N 64°03' W 052°13'4 8.8
2019-Jul-09 16:00N 63°59' W 052°18'612.5
2019-Jul-09 15:30N 63°53' W 052°13'612.8
2019-Jul-09 15:00N 63°47' W 052°11'713.4
2019-Jul-09 14:30N 63°40' W 052°08'713.3
2019-Jul-09 14:01N 63°34' W 052°06'713.0
2019-Jul-09 13:30N 63°27' W 052°04'1213.4
2019-Jul-09 12:39N 63°16' W 052°00'213.7
2019-Jul-09 12:30N 63°14' W 051°59'1113.6
2019-Jul-09 11:42N 63°03' W 051°56'  
Track history (hours):
 
Tides and Currents Weather Stations Pressure Air Temp Water Temp Dewpoint Dewpoint Depression Visibility Wind Speed Wind Dir Waves Ship Positions

Astor

Operator: Passat Ship Management Ltd

Last reported at 2019-Jul-15 19:32 UTC. Time now 2019-Jul-20 01:25 UTC.
Position N 63°22' W 051°58'.

Length 177 m; draft 6.2 m.

Type: Ship. MMSI: 308214000.

Date/timePositionNaut miles runAvg speedWind from/ knotsBaromVisibWave heightAir tempDewpointWater temp
2019-Jul-15 19:32N 63°22' W 051°58'015.0
2019-Jul-15 19:30N 63°23' W 051°59'815.1
2019-Jul-15 19:00N 63°29' W 052°08'815.2
2019-Jul-15 18:30N 63°35' W 052°17'815.2
2019-Jul-15 18:00N 63°42' W 052°24'815.5
2019-Jul-15 17:30N 63°49' W 052°32'815.3
2019-Jul-15 17:00N 63°56' W 052°40'714.9
2019-Jul-15 16:30N 64°03' W 052°46'714.9
2019-Jul-15 16:00N 64°10' W 052°51'715.1
2019-Jul-15 15:30N 64°17' W 052°56'815.6
2019-Jul-15 15:00N 64°25' W 053°00'815.7
2019-Jul-15 14:30N 64°32' W 053°05'815.6
2019-Jul-15 14:00N 64°40' W 053°09'815.4
2019-Jul-15 13:30N 64°48' W 053°13'815.4
2019-Jul-15 13:00N 64°55' W 053°17'815.5
2019-Jul-15 12:30N 65°03' W 053°21'815.2
2019-Jul-15 12:00N 65°10' W 053°26'815.2
2019-Jul-15 11:30N 65°17' W 053°30'714.9
2019-Jul-15 11:00N 65°25' W 053°35'714.7
2019-Jul-15 10:30N 65°32' W 053°39'815.1
2019-Jul-15 10:00N 65°39' W 053°44'815.5
2019-Jul-15 09:29N 65°47' W 053°49'1214.9
2019-Jul-15 08:42N 65°58' W 053°55'  
2019-Jul-10 08:52N 65°59' W 053°53'513.2
2019-Jul-10 08:30N 65°54' W 053°51'814.1
2019-Jul-10 07:58N 65°47' W 053°47'1014.8
2019-Jul-10 07:18N 65°37' W 053°40'514.8
2019-Jul-10 06:56N 65°32' W 053°37'614.8
2019-Jul-10 06:30N 65°26' W 053°34'1114.8
2019-Jul-10 05:46N 65°16' W 053°27'414.3
2019-Jul-10 05:30N 65°12' W 053°25'714.1
2019-Jul-10 05:00N 65°05' W 053°20'714.4
2019-Jul-10 04:30N 64°58' W 053°16'714.7
2019-Jul-10 04:00N 64°51' W 053°11'714.6
2019-Jul-10 03:30N 64°44' W 053°06'714.7
2019-Jul-10 03:00N 64°37' W 053°01'714.6
2019-Jul-10 02:30N 64°30' W 052°56'714.6
2019-Jul-10 02:00N 64°23' W 052°50'714.5
2019-Jul-10 01:30N 64°16' W 052°45'714.6
2019-Jul-10 01:00N 64°11' W 052°32'815.0
2019-Jul-10 00:30N 64°06' W 052°20'612.3
2019-Jul-10 00:00N 64°04' W 052°06'511.0
2019-Jul-09 23:30N 64°07' W 051°55'611.4
2019-Jul-09 23:00N 64°09' W 051°44'1 1.3
2019-Jul-09 22:29N 64°10' W 051°43'0 0.0
2019-Jul-09 21:59N 64°10' W 051°43'0 0.0
2019-Jul-09 21:29N 64°10' W 051°43'0 0.0
2019-Jul-09 20:58N 64°10' W 051°43'0 0.0
2019-Jul-09 20:28N 64°10' W 051°43'0 0.0
2019-Jul-09 19:58N 64°10' W 051°43'0 0.0
2019-Jul-09 19:28N 64°10' W 051°43'0 0.0
2019-Jul-09 18:58N 64°10' W 051°43'0 0.2
2019-Jul-09 18:30N 64°10' W 051°43'1 2.3
2019-Jul-09 18:00N 64°09' W 051°45'4 8.8
2019-Jul-09 17:30N 64°07' W 051°54'4 8.5
2019-Jul-09 17:00N 64°05' W 052°03'5 9.8
2019-Jul-09 16:30N 64°03' W 052°13'4 8.8
2019-Jul-09 16:00N 63°59' W 052°18'612.5
2019-Jul-09 15:30N 63°53' W 052°13'612.8
2019-Jul-09 15:00N 63°47' W 052°11'713.4
2019-Jul-09 14:30N 63°40' W 052°08'713.3
2019-Jul-09 14:01N 63°34' W 052°06'713.0
2019-Jul-09 13:30N 63°27' W 052°04'1213.4
2019-Jul-09 12:39N 63°16' W 052°00'213.7
2019-Jul-09 12:30N 63°14' W 051°59'1113.6
2019-Jul-09 11:42N 63°03' W 051°56'  

Dump ship's entire track history